createdAt,value
2023-04-07T00:02:42.459Z,13.07
2023-04-07T00:08:49.316Z,11.80
2023-04-07T00:14:51.320Z,12.15
2023-04-07T00:20:54.605Z,12.68
2023-04-07T00:26:57.030Z,13.02
2023-04-07T00:32:59.326Z,12.75
2023-04-07T00:39:01.496Z,13.52
2023-04-07T00:45:06.585Z,12.65
2023-04-07T00:51:08.721Z,13.32
2023-04-07T00:57:11.072Z,13.18
2023-04-07T01:03:31.892Z,12.98
2023-04-07T01:09:47.753Z,13.45
2023-04-07T01:15:53.070Z,12.85
2023-04-07T01:21:58.916Z,13.33
2023-04-07T01:28:02.194Z,13.65
2023-04-07T01:34:08.720Z,13.50
2023-04-07T01:40:11.575Z,14.23
2023-04-07T01:46:14.346Z,13.35
2023-04-07T01:52:17.328Z,14.80
2023-04-07T01:58:19.134Z,14.27
2023-04-07T02:04:38.981Z,13.52
2023-04-07T02:10:41.884Z,13.63
2023-04-07T02:16:47.458Z,13.63
2023-04-07T02:22:50.889Z,14.23
2023-04-07T02:28:52.951Z,14.73
2023-04-07T02:34:55.059Z,13.98
2023-04-07T02:40:57.069Z,14.20
2023-04-07T02:46:58.996Z,14.75
2023-04-07T02:53:00.984Z,14.38
2023-04-07T02:59:02.978Z,14.23
2023-04-07T03:05:09.436Z,15.30
2023-04-07T03:11:11.700Z,14.57
2023-04-07T03:17:13.693Z,15.95
2023-04-07T03:23:16.560Z,15.70
2023-04-07T03:29:19.858Z,16.08
2023-04-07T03:35:22.228Z,15.43
2023-04-07T03:41:24.307Z,14.45
2023-04-07T03:47:26.525Z,15.45
2023-04-07T03:53:33.200Z,16.08
2023-04-07T03:59:40.136Z,13.90
2023-04-07T04:05:42.973Z,14.35
